sensor_id;sensor_type;location;lat;lon;timestamp;temperature;humidity
81140;SHT31;70624;51.978;5.656;2023-07-09T00:01:56;24.6;64.2
81140;SHT31;70624;51.978;5.656;2023-07-09T00:04:24;24.5;64.0
81140;SHT31;70624;51.978;5.656;2023-07-09T00:07:02;24.5;64.0
81140;SHT31;70624;51.978;5.656;2023-07-09T00:09:30;24.5;64.2
81140;SHT31;70624;51.978;5.656;2023-07-09T00:11:59;24.5;64.2
81140;SHT31;70624;51.978;5.656;2023-07-09T00:14:28;24.4;64.5
81140;SHT31;70624;51.978;5.656;2023-07-09T00:16:57;24.4;64.6
81140;SHT31;70624;51.978;5.656;2023-07-09T00:19:25;24.4;64.7
81140;SHT31;70624;51.978;5.656;2023-07-09T00:21:55;24.4;64.6
81140;SHT31;70624;51.978;5.656;2023-07-09T00:24:24;24.4;64.7
81140;SHT31;70624;51.978;5.656;2023-07-09T00:26:53;24.3;64.6
81140;SHT31;70624;51.978;5.656;2023-07-09T00:29:21;24.3;64.7
81140;SHT31;70624;51.978;5.656;2023-07-09T00:31:49;24.3;64.8
81140;SHT31;70624;51.978;5.656;2023-07-09T00:34:18;24.3;64.7
81140;SHT31;70624;51.978;5.656;2023-07-09T00:36:49;24.3;64.8
81140;SHT31;70624;51.978;5.656;2023-07-09T00:39:21;24.3;64.9
81140;SHT31;70624;51.978;5.656;2023-07-09T00:41:51;24.3;65.1
81140;SHT31;70624;51.978;5.656;2023-07-09T00:44:28;24.2;64.9
81140;SHT31;70624;51.978;5.656;2023-07-09T00:47:18;24.2;64.9
81140;SHT31;70624;51.978;5.656;2023-07-09T00:50:05;24.2;64.9
81140;SHT31;70624;51.978;5.656;2023-07-09T00:52:42;24.2;65.1
81140;SHT31;70624;51.978;5.656;2023-07-09T00:55:19;24.2;65.3
81140;SHT31;70624;51.978;5.656;2023-07-09T00:57:52;24.1;65.4
81140;SHT31;70624;51.978;5.656;2023-07-09T01:00:29;24.1;65.4
81140;SHT31;70624;51.978;5.656;2023-07-09T01:03:04;24.1;65.5
81140;SHT31;70624;51.978;5.656;2023-07-09T01:05:34;24.1;65.7
81140;SHT31;70624;51.978;5.656;2023-07-09T01:08:02;24.1;65.7
81140;SHT31;70624;51.978;5.656;2023-07-09T01:10:30;24.0;65.8
81140;SHT31;70624;51.978;5.656;2023-07-09T01:12:59;24.0;65.8
81140;SHT31;70624;51.978;5.656;2023-07-09T01:15:27;24.0;65.8
81140;SHT31;70624;51.978;5.656;2023-07-09T01:17:56;24.0;66.0
81140;SHT31;70624;51.978;5.656;2023-07-09T01:20:26;24.0;66.1
81140;SHT31;70624;51.978;5.656;2023-07-09T01:22:55;24.0;66.0
81140;SHT31;70624;51.978;5.656;2023-07-09T01:25:27;23.9;65.9
81140;SHT31;70624;51.978;5.656;2023-07-09T01:27:57;23.9;66.1
81140;SHT31;70624;51.978;5.656;2023-07-09T01:30:30;23.9;66.1
81140;SHT31;70624;51.978;5.656;2023-07-09T01:33:01;23.9;66.0
81140;SHT31;70624;51.978;5.656;2023-07-09T01:35:32;23.9;66.0
81140;SHT31;70624;51.978;5.656;2023-07-09T01:38:02;23.8;65.9
81140;SHT31;70624;51.978;5.656;2023-07-09T01:40:33;23.8;66.1
81140;SHT31;70624;51.978;5.656;2023-07-09T01:43:02;23.8;66.2
81140;SHT31;70624;51.978;5.656;2023-07-09T01:45:33;23.8;65.7
81140;SHT31;70624;51.978;5.656;2023-07-09T01:48:02;23.8;66.0
81140;SHT31;70624;51.978;5.656;2023-07-09T01:50:31;23.7;66.1
81140;SHT31;70624;51.978;5.656;2023-07-09T01:53:00;23.7;66.1
81140;SHT31;70624;51.978;5.656;2023-07-09T01:55:29;23.7;66.1
81140;SHT31;70624;51.978;5.656;2023-07-09T01:57:58;23.7;66.0
81140;SHT31;70624;51.978;5.656;2023-07-09T02:00:26;23.6;66.1
81140;SHT31;70624;51.978;5.656;2023-07-09T02:02:54;23.6;66.1
81140;SHT31;70624;51.978;5.656;2023-07-09T02:05:24;23.6;66.1
81140;SHT31;70624;51.978;5.656;2023-07-09T02:07:54;23.6;66.2
81140;SHT31;70624;51.978;5.656;2023-07-09T02:10:23;23.6;66.4
81140;SHT31;70624;51.978;5.656;2023-07-09T02:12:51;23.5;66.5
81140;SHT31;70624;51.978;5.656;2023-07-09T02:15:20;23.5;66.7
81140;SHT31;70624;51.978;5.656;2023-07-09T02:17:49;23.5;66.7
81140;SHT31;70624;51.978;5.656;2023-07-09T02:20:18;23.5;66.7
81140;SHT31;70624;51.978;5.656;2023-07-09T02:22:50;23.4;66.6
81140;SHT31;70624;51.978;5.656;2023-07-09T02:25:18;23.4;66.7
81140;SHT31;70624;51.978;5.656;2023-07-09T02:27:46;23.4;66.8
81140;SHT31;70624;51.978;5.656;2023-07-09T02:30:15;23.4;66.7
81140;SHT31;70624;51.978;5.656;2023-07-09T02:32:43;23.4;67.0
81140;SHT31;70624;51.978;5.656;2023-07-09T02:35:11;23.3;67.0
81140;SHT31;70624;51.978;5.656;2023-07-09T02:37:40;23.3;66.9
81140;SHT31;70624;51.978;5.656;2023-07-09T02:40:12;23.3;67.3
81140;SHT31;70624;51.978;5.656;2023-07-09T02:42:40;23.3;67.1
81140;SHT31;70624;51.978;5.656;2023-07-09T02:45:10;23.3;67.2
81140;SHT31;70624;51.978;5.656;2023-07-09T02:47:38;23.2;67.4
81140;SHT31;70624;51.978;5.656;2023-07-09T02:50:07;23.2;67.3
81140;SHT31;70624;51.978;5.656;2023-07-09T02:52:36;23.2;67.5
81140;SHT31;70624;51.978;5.656;2023-07-09T02:55:05;23.2;67.5
81140;SHT31;70624;51.978;5.656;2023-07-09T02:57:33;23.1;67.7
81140;SHT31;70624;51.978;5.656;2023-07-09T03:00:02;23.1;67.7
81140;SHT31;70624;51.978;5.656;2023-07-09T03:02:32;23.1;68.0
81140;SHT31;70624;51.978;5.656;2023-07-09T03:05:01;23.1;68.1
81140;SHT31;70624;51.978;5.656;2023-07-09T03:07:29;23.1;68.1
81140;SHT31;70624;51.978;5.656;2023-07-09T03:09:57;23.1;68.3
81140;SHT31;70624;51.978;5.656;2023-07-09T03:12:26;23.0;68.1
81140;SHT31;70624;51.978;5.656;2023-07-09T03:14:54;23.0;68.2
81140;SHT31;70624;51.978;5.656;2023-07-09T03:17:23;23.0;68.3
81140;SHT31;70624;51.978;5.656;2023-07-09T03:19:51;23.0;68.4
81140;SHT31;70624;51.978;5.656;2023-07-09T03:22:20;23.0;68.3
81140;SHT31;70624;51.978;5.656;2023-07-09T03:24:48;23.0;68.4
81140;SHT31;70624;51.978;5.656;2023-07-09T03:27:16;22.9;68.4
81140;SHT31;70624;51.978;5.656;2023-07-09T03:29:45;22.9;68.5
81140;SHT31;70624;51.978;5.656;2023-07-09T03:32:13;22.9;68.6
81140;SHT31;70624;51.978;5.656;2023-07-09T03:34:41;22.9;68.5
81140;SHT31;70624;51.978;5.656;2023-07-09T03:37:10;22.9;68.4
81140;SHT31;70624;51.978;5.656;2023-07-09T03:39:38;22.9;68.5
81140;SHT31;70624;51.978;5.656;2023-07-09T03:42:07;22.9;68.7
81140;SHT31;70624;51.978;5.656;2023-07-09T03:44:36;22.9;68.6
81140;SHT31;70624;51.978;5.656;2023-07-09T03:47:04;22.9;68.8
81140;SHT31;70624;51.978;5.656;2023-07-09T03:49:33;22.9;68.9
81140;SHT31;70624;51.978;5.656;2023-07-09T03:52:01;22.9;68.9
81140;SHT31;70624;51.978;5.656;2023-07-09T03:54:30;22.9;68.9
81140;SHT31;70624;51.978;5.656;2023-07-09T03:56:58;22.9;68.7
81140;SHT31;70624;51.978;5.656;2023-07-09T03:59:26;22.9;68.9
81140;SHT31;70624;51.978;5.656;2023-07-09T04:01:55;22.9;68.9
81140;SHT31;70624;51.978;5.656;2023-07-09T04:04:23;22.9;69.1
81140;SHT31;70624;51.978;5.656;2023-07-09T04:06:51;22.9;69.2
81140;SHT31;70624;51.978;5.656;2023-07-09T04:09:20;22.9;69.3
81140;SHT31;70624;51.978;5.656;2023-07-09T04:11:49;22.9;69.1
81140;SHT31;70624;51.978;5.656;2023-07-09T04:14:17;22.9;69.3
81140;SHT31;70624;51.978;5.656;2023-07-09T04:16:46;23.0;69.3
81140;SHT31;70624;51.978;5.656;2023-07-09T04:19:14;23.0;69.5
81140;SHT31;70624;51.978;5.656;2023-07-09T04:21:42;23.0;69.5
81140;SHT31;70624;51.978;5.656;2023-07-09T04:24:11;23.0;69.5
81140;SHT31;70624;51.978;5.656;2023-07-09T04:26:39;23.0;69.6
81140;SHT31;70624;51.978;5.656;2023-07-09T04:29:08;23.0;69.6
81140;SHT31;70624;51.978;5.656;2023-07-09T04:31:37;23.1;69.7
81140;SHT31;70624;51.978;5.656;2023-07-09T04:34:06;23.1;69.9
81140;SHT31;70624;51.978;5.656;2023-07-09T04:36:34;23.1;69.9
81140;SHT31;70624;51.978;5.656;2023-07-09T04:39:03;23.1;70.1
81140;SHT31;70624;51.978;5.656;2023-07-09T04:41:32;23.2;70.2
81140;SHT31;70624;51.978;5.656;2023-07-09T04:44:01;23.2;70.3
81140;SHT31;70624;51.978;5.656;2023-07-09T04:46:29;23.2;70.2
81140;SHT31;70624;51.978;5.656;2023-07-09T04:48:59;23.3;70.4
81140;SHT31;70624;51.978;5.656;2023-07-09T04:51:28;23.3;70.5
81140;SHT31;70624;51.978;5.656;2023-07-09T04:53:56;23.3;70.5
81140;SHT31;70624;51.978;5.656;2023-07-09T04:56:26;23.4;70.6
81140;SHT31;70624;51.978;5.656;2023-07-09T04:58:56;23.4;70.5
81140;SHT31;70624;51.978;5.656;2023-07-09T05:01:25;23.5;70.7
81140;SHT31;70624;51.978;5.656;2023-07-09T05:03:54;23.5;70.8
81140;SHT31;70624;51.978;5.656;2023-07-09T05:06:22;23.6;70.9
81140;SHT31;70624;51.978;5.656;2023-07-09T05:08:51;23.6;70.9
81140;SHT31;70624;51.978;5.656;2023-07-09T05:11:19;23.7;71.0
81140;SHT31;70624;51.978;5.656;2023-07-09T05:13:47;23.7;71.3
81140;SHT31;70624;51.978;5.656;2023-07-09T05:16:16;23.8;71.3
81140;SHT31;70624;51.978;5.656;2023-07-09T05:18:45;23.9;71.2
81140;SHT31;70624;51.978;5.656;2023-07-09T05:21:14;24.0;71.4
81140;SHT31;70624;51.978;5.656;2023-07-09T05:23:42;24.0;71.2
81140;SHT31;70624;51.978;5.656;2023-07-09T05:26:11;24.1;71.4
81140;SHT31;70624;51.978;5.656;2023-07-09T05:28:39;24.2;71.4
81140;SHT31;70624;51.978;5.656;2023-07-09T05:31:08;24.3;70.2
81140;SHT31;70624;51.978;5.656;2023-07-09T05:33:37;24.4;67.9
81140;SHT31;70624;51.978;5.656;2023-07-09T05:36:05;24.5;66.6
81140;SHT31;70624;51.978;5.656;2023-07-09T05:38:34;24.5;67.7
81140;SHT31;70624;51.978;5.656;2023-07-09T05:41:04;24.6;66.0
81140;SHT31;70624;51.978;5.656;2023-07-09T05:43:34;24.7;66.4
81140;SHT31;70624;51.978;5.656;2023-07-09T05:46:05;24.8;66.9
81140;SHT31;70624;51.978;5.656;2023-07-09T05:48:34;24.9;67.6
81140;SHT31;70624;51.978;5.656;2023-07-09T05:51:03;25.0;66.5
81140;SHT31;70624;51.978;5.656;2023-07-09T05:53:31;25.1;65.6
81140;SHT31;70624;51.978;5.656;2023-07-09T05:56:00;25.2;67.3
81140;SHT31;70624;51.978;5.656;2023-07-09T05:58:31;25.4;66.9
81140;SHT31;70624;51.978;5.656;2023-07-09T06:00:59;25.5;65.2
81140;SHT31;70624;51.978;5.656;2023-07-09T06:03:31;25.6;65.4
81140;SHT31;70624;51.978;5.656;2023-07-09T06:05:59;25.7;63.9
81140;SHT31;70624;51.978;5.656;2023-07-09T06:08:28;25.8;63.7
81140;SHT31;70624;51.978;5.656;2023-07-09T06:10:58;26.0;63.1
81140;SHT31;70624;51.978;5.656;2023-07-09T06:13:28;26.1;63.0
81140;SHT31;70624;51.978;5.656;2023-07-09T06:15:59;26.2;62.2
81140;SHT31;70624;51.978;5.656;2023-07-09T06:18:28;26.3;61.8
81140;SHT31;70624;51.978;5.656;2023-07-09T06:20:59;26.4;61.5
81140;SHT31;70624;51.978;5.656;2023-07-09T06:23:28;26.5;60.9
81140;SHT31;70624;51.978;5.656;2023-07-09T06:25:57;26.6;58.6
81140;SHT31;70624;51.978;5.656;2023-07-09T06:28:27;26.7;59.3
81140;SHT31;70624;51.978;5.656;2023-07-09T06:30:57;26.8;58.4
81140;SHT31;70624;51.978;5.656;2023-07-09T06:33:27;26.9;57.8
81140;SHT31;70624;51.978;5.656;2023-07-09T06:35:57;27.0;58.0
81140;SHT31;70624;51.978;5.656;2023-07-09T06:38:26;27.1;59.4
81140;SHT31;70624;51.978;5.656;2023-07-09T06:40:55;27.2;59.2
81140;SHT31;70624;51.978;5.656;2023-07-09T06:43:24;27.3;58.3
81140;SHT31;70624;51.978;5.656;2023-07-09T06:45:55;27.4;58.5
81140;SHT31;70624;51.978;5.656;2023-07-09T06:48:25;27.5;59.1
81140;SHT31;70624;51.978;5.656;2023-07-09T06:50:55;27.6;58.8
81140;SHT31;70624;51.978;5.656;2023-07-09T06:53:25;27.7;59.6
81140;SHT31;70624;51.978;5.656;2023-07-09T06:55:55;27.8;58.6
81140;SHT31;70624;51.978;5.656;2023-07-09T06:58:26;28.0;58.7
81140;SHT31;70624;51.978;5.656;2023-07-09T07:00:59;28.1;57.6
81140;SHT31;70624;51.978;5.656;2023-07-09T07:03:31;28.2;57.5
81140;SHT31;70624;51.978;5.656;2023-07-09T07:05:59;28.3;58.4
81140;SHT31;70624;51.978;5.656;2023-07-09T07:08:28;28.4;59.2
81140;SHT31;70624;51.978;5.656;2023-07-09T07:10:59;28.5;56.9
81140;SHT31;70624;51.978;5.656;2023-07-09T07:13:32;28.7;58.0
81140;SHT31;70624;51.978;5.656;2023-07-09T07:16:02;28.8;57.3
81140;SHT31;70624;51.978;5.656;2023-07-09T07:18:32;28.9;54.7
81140;SHT31;70624;51.978;5.656;2023-07-09T07:21:01;29.1;55.6
81140;SHT31;70624;51.978;5.656;2023-07-09T07:23:30;29.2;55.8
81140;SHT31;70624;51.978;5.656;2023-07-09T07:25:58;29.3;55.6
81140;SHT31;70624;51.978;5.656;2023-07-09T07:28:27;29.5;55.7
81140;SHT31;70624;51.978;5.656;2023-07-09T07:31:03;29.6;55.3
81140;SHT31;70624;51.978;5.656;2023-07-09T07:33:32;29.7;54.3
81140;SHT31;70624;51.978;5.656;2023-07-09T07:36:00;29.9;54.7
81140;SHT31;70624;51.978;5.656;2023-07-09T07:38:28;30.1;53.3
81140;SHT31;70624;51.978;5.656;2023-07-09T07:40:57;30.2;51.7
81140;SHT31;70624;51.978;5.656;2023-07-09T07:43:25;30.4;53.0
81140;SHT31;70624;51.978;5.656;2023-07-09T07:45:54;30.5;53.1
81140;SHT31;70624;51.978;5.656;2023-07-09T07:48:22;30.6;53.1
81140;SHT31;70624;51.978;5.656;2023-07-09T07:50:51;30.8;52.2
81140;SHT31;70624;51.978;5.656;2023-07-09T07:53:19;30.9;52.7
81140;SHT31;70624;51.978;5.656;2023-07-09T07:55:47;31.1;50.0
81140;SHT31;70624;51.978;5.656;2023-07-09T07:58:16;31.2;49.5
81140;SHT31;70624;51.978;5.656;2023-07-09T08:00:44;31.3;49.9
81140;SHT31;70624;51.978;5.656;2023-07-09T08:03:13;31.4;49.1
81140;SHT31;70624;51.978;5.656;2023-07-09T08:05:41;31.5;50.1
81140;SHT31;70624;51.978;5.656;2023-07-09T08:08:10;31.6;49.6
81140;SHT31;70624;51.978;5.656;2023-07-09T08:10:39;31.7;49.3
81140;SHT31;70624;51.978;5.656;2023-07-09T08:13:07;31.8;49.1
81140;SHT31;70624;51.978;5.656;2023-07-09T08:15:35;32.0;50.0
81140;SHT31;70624;51.978;5.656;2023-07-09T08:18:04;32.1;48.2
81140;SHT31;70624;51.978;5.656;2023-07-09T08:20:32;32.2;49.0
81140;SHT31;70624;51.978;5.656;2023-07-09T08:23:03;32.3;48.4
81140;SHT31;70624;51.978;5.656;2023-07-09T08:25:32;32.4;47.7
81140;SHT31;70624;51.978;5.656;2023-07-09T08:28:01;32.5;46.8
81140;SHT31;70624;51.978;5.656;2023-07-09T08:30:29;32.6;47.6
81140;SHT31;70624;51.978;5.656;2023-07-09T08:32:57;32.7;46.8
81140;SHT31;70624;51.978;5.656;2023-07-09T08:35:27;32.8;46.3
81140;SHT31;70624;51.978;5.656;2023-07-09T08:37:55;32.9;46.5
81140;SHT31;70624;51.978;5.656;2023-07-09T08:40:23;33.0;46.9
81140;SHT31;70624;51.978;5.656;2023-07-09T08:42:57;33.1;46.5
81140;SHT31;70624;51.978;5.656;2023-07-09T08:45:38;33.2;46.4
81140;SHT31;70624;51.978;5.656;2023-07-09T08:48:14;33.2;45.8
81140;SHT31;70624;51.978;5.656;2023-07-09T08:50:48;33.4;46.4
81140;SHT31;70624;51.978;5.656;2023-07-09T08:53:21;33.5;46.0
81140;SHT31;70624;51.978;5.656;2023-07-09T08:55:53;33.5;44.7
81140;SHT31;70624;51.978;5.656;2023-07-09T08:58:26;33.6;46.0
81140;SHT31;70624;51.978;5.656;2023-07-09T09:00:58;33.7;45.4
81140;SHT31;70624;51.978;5.656;2023-07-09T09:03:37;33.8;45.7
81140;SHT31;70624;51.978;5.656;2023-07-09T09:06:13;33.8;44.8
81140;SHT31;70624;51.978;5.656;2023-07-09T09:08:51;33.9;46.2
81140;SHT31;70624;51.978;5.656;2023-07-09T09:11:29;34.0;45.5
81140;SHT31;70624;51.978;5.656;2023-07-09T09:14:03;34.2;45.8
81140;SHT31;70624;51.978;5.656;2023-07-09T09:16:37;34.3;44.0
81140;SHT31;70624;51.978;5.656;2023-07-09T09:19:15;34.3;44.3
81140;SHT31;70624;51.978;5.656;2023-07-09T09:21:49;34.4;44.4
81140;SHT31;70624;51.978;5.656;2023-07-09T09:24:26;34.5;45.2
81140;SHT31;70624;51.978;5.656;2023-07-09T09:26:58;34.6;44.2
81140;SHT31;70624;51.978;5.656;2023-07-09T09:29:27;34.7;43.1
81140;SHT31;70624;51.978;5.656;2023-07-09T09:31:58;34.8;43.7
81140;SHT31;70624;51.978;5.656;2023-07-09T09:34:29;34.8;43.3
81140;SHT31;70624;51.978;5.656;2023-07-09T09:36:58;34.9;43.2
81140;SHT31;70624;51.978;5.656;2023-07-09T09:39:27;35.0;41.2
81140;SHT31;70624;51.978;5.656;2023-07-09T09:41:57;35.0;42.5
81140;SHT31;70624;51.978;5.656;2023-07-09T09:44:28;35.1;41.7
81140;SHT31;70624;51.978;5.656;2023-07-09T09:46:58;35.2;40.3
81140;SHT31;70624;51.978;5.656;2023-07-09T09:49:26;35.2;40.9
81140;SHT31;70624;51.978;5.656;2023-07-09T09:52:01;35.3;41.0
81140;SHT31;70624;51.978;5.656;2023-07-09T09:54:33;35.3;42.3
81140;SHT31;70624;51.978;5.656;2023-07-09T09:57:01;35.4;41.8
81140;SHT31;70624;51.978;5.656;2023-07-09T09:59:33;35.4;40.7
81140;SHT31;70624;51.978;5.656;2023-07-09T10:02:16;35.5;42.0
81140;SHT31;70624;51.978;5.656;2023-07-09T10:04:46;35.6;41.5
81140;SHT31;70624;51.978;5.656;2023-07-09T10:07:21;35.6;40.4
81140;SHT31;70624;51.978;5.656;2023-07-09T10:09:53;35.7;40.6
81140;SHT31;70624;51.978;5.656;2023-07-09T10:12:32;35.7;39.2
81140;SHT31;70624;51.978;5.656;2023-07-09T10:15:16;35.8;41.2
81140;SHT31;70624;51.978;5.656;2023-07-09T10:17:57;35.8;40.8
81140;SHT31;70624;51.978;5.656;2023-07-09T10:20:36;35.8;40.9
81140;SHT31;70624;51.978;5.656;2023-07-09T10:23:15;35.9;39.9
81140;SHT31;70624;51.978;5.656;2023-07-09T10:25:54;36.0;39.2
81140;SHT31;70624;51.978;5.656;2023-07-09T10:28:38;36.0;39.6
81140;SHT31;70624;51.978;5.656;2023-07-09T10:31:17;36.1;38.1
81140;SHT31;70624;51.978;5.656;2023-07-09T10:33:59;36.1;37.9
81140;SHT31;70624;51.978;5.656;2023-07-09T10:36:44;36.2;36.4
81140;SHT31;70624;51.978;5.656;2023-07-09T10:39:20;36.2;37.3
81140;SHT31;70624;51.978;5.656;2023-07-09T10:41:51;36.3;37.1
81140;SHT31;70624;51.978;5.656;2023-07-09T10:44:32;36.3;38.3
81140;SHT31;70624;51.978;5.656;2023-07-09T10:47:05;36.3;37.3
81140;SHT31;70624;51.978;5.656;2023-07-09T10:49:39;36.4;35.7
81140;SHT31;70624;51.978;5.656;2023-07-09T10:52:16;36.4;35.9
81140;SHT31;70624;51.978;5.656;2023-07-09T10:54:57;36.4;37.9
81140;SHT31;70624;51.978;5.656;2023-07-09T10:57:35;36.5;37.5
81140;SHT31;70624;51.978;5.656;2023-07-09T11:00:11;36.5;37.6
81140;SHT31;70624;51.978;5.656;2023-07-09T11:02:44;36.5;36.6
81140;SHT31;70624;51.978;5.656;2023-07-09T11:05:14;36.6;37.3
81140;SHT31;70624;51.978;5.656;2023-07-09T11:07:45;36.6;37.0
81140;SHT31;70624;51.978;5.656;2023-07-09T11:10:21;36.6;37.1
81140;SHT31;70624;51.978;5.656;2023-07-09T11:12:57;36.6;36.1
81140;SHT31;70624;51.978;5.656;2023-07-09T11:15:34;36.6;34.4
81140;SHT31;70624;51.978;5.656;2023-07-09T11:18:06;36.6;34.2
81140;SHT31;70624;51.978;5.656;2023-07-09T11:20:41;36.6;34.1
81140;SHT31;70624;51.978;5.656;2023-07-09T11:23:19;36.5;33.8
81140;SHT31;70624;51.978;5.656;2023-07-09T11:26:03;36.5;36.6
81140;SHT31;70624;51.978;5.656;2023-07-09T11:28:37;36.5;36.2
81140;SHT31;70624;51.978;5.656;2023-07-09T11:31:08;36.5;37.6
81140;SHT31;70624;51.978;5.656;2023-07-09T11:33:46;36.5;36.5
81140;SHT31;70624;51.978;5.656;2023-07-09T11:36:26;36.5;36.1
81140;SHT31;70624;51.978;5.656;2023-07-09T11:38:54;36.5;37.5
81140;SHT31;70624;51.978;5.656;2023-07-09T11:41:38;36.6;37.2
81140;SHT31;70624;51.978;5.656;2023-07-09T11:44:15;36.6;36.5
81140;SHT31;70624;51.978;5.656;2023-07-09T11:46:55;36.6;34.9
81140;SHT31;70624;51.978;5.656;2023-07-09T11:49:36;36.6;36.0
81140;SHT31;70624;51.978;5.656;2023-07-09T11:52:09;36.7;36.3
81140;SHT31;70624;51.978;5.656;2023-07-09T11:54:41;36.7;37.9
81140;SHT31;70624;51.978;5.656;2023-07-09T11:57:13;36.7;35.3
81140;SHT31;70624;51.978;5.656;2023-07-09T11:59:42;36.7;35.3
81140;SHT31;70624;51.978;5.656;2023-07-09T12:02:16;36.7;35.4
81140;SHT31;70624;51.978;5.656;2023-07-09T12:04:48;36.7;35.2
81140;SHT31;70624;51.978;5.656;2023-07-09T12:07:18;36.7;34.3
81140;SHT31;70624;51.978;5.656;2023-07-09T12:09:50;36.7;37.1
81140;SHT31;70624;51.978;5.656;2023-07-09T12:12:23;36.7;35.7
81140;SHT31;70624;51.978;5.656;2023-07-09T12:14:52;36.7;37.5
81140;SHT31;70624;51.978;5.656;2023-07-09T12:17:23;36.7;36.3
81140;SHT31;70624;51.978;5.656;2023-07-09T12:19:53;36.7;37.2
81140;SHT31;70624;51.978;5.656;2023-07-09T12:22:22;36.6;36.8
81140;SHT31;70624;51.978;5.656;2023-07-09T12:24:50;36.6;37.6
81140;SHT31;70624;51.978;5.656;2023-07-09T12:27:23;36.6;37.2
81140;SHT31;70624;51.978;5.656;2023-07-09T12:29:54;36.6;39.0
81140;SHT31;70624;51.978;5.656;2023-07-09T12:32:23;36.5;38.5
81140;SHT31;70624;51.978;5.656;2023-07-09T12:34:55;36.5;40.0
81140;SHT31;70624;51.978;5.656;2023-07-09T12:37:25;36.5;39.3
81140;SHT31;70624;51.978;5.656;2023-07-09T12:39:55;36.4;38.8
81140;SHT31;70624;51.978;5.656;2023-07-09T12:42:30;36.3;39.7
81140;SHT31;70624;51.978;5.656;2023-07-09T12:45:00;36.3;40.4
81140;SHT31;70624;51.978;5.656;2023-07-09T12:47:29;36.2;39.8
81140;SHT31;70624;51.978;5.656;2023-07-09T12:50:09;36.1;41.5
81140;SHT31;70624;51.978;5.656;2023-07-09T12:52:46;36.1;40.7
81140;SHT31;70624;51.978;5.656;2023-07-09T12:55:23;36.1;40.0
81140;SHT31;70624;51.978;5.656;2023-07-09T12:57:54;36.0;39.8
81140;SHT31;70624;51.978;5.656;2023-07-09T13:00:27;36.0;39.7
81140;SHT31;70624;51.978;5.656;2023-07-09T13:02:59;36.0;40.2
81140;SHT31;70624;51.978;5.656;2023-07-09T13:05:27;36.0;39.8
81140;SHT31;70624;51.978;5.656;2023-07-09T13:07:59;36.0;40.4
81140;SHT31;70624;51.978;5.656;2023-07-09T13:10:30;36.0;41.1
81140;SHT31;70624;51.978;5.656;2023-07-09T13:13:01;35.9;41.5
81140;SHT31;70624;51.978;5.656;2023-07-09T13:15:38;35.9;40.5
81140;SHT31;70624;51.978;5.656;2023-07-09T13:18:07;35.9;40.6
81140;SHT31;70624;51.978;5.656;2023-07-09T13:20:38;35.9;41.0
81140;SHT31;70624;51.978;5.656;2023-07-09T13:23:12;35.8;42.0
81140;SHT31;70624;51.978;5.656;2023-07-09T13:25:41;35.8;41.3
81140;SHT31;70624;51.978;5.656;2023-07-09T13:28:14;35.8;43.0
81140;SHT31;70624;51.978;5.656;2023-07-09T13:30:43;35.7;43.3
81140;SHT31;70624;51.978;5.656;2023-07-09T13:33:12;35.6;44.2
81140;SHT31;70624;51.978;5.656;2023-07-09T13:35:41;35.6;43.9
81140;SHT31;70624;51.978;5.656;2023-07-09T13:38:14;35.5;43.4
81140;SHT31;70624;51.978;5.656;2023-07-09T13:40:45;35.4;42.8
81140;SHT31;70624;51.978;5.656;2023-07-09T13:43:17;35.3;41.5
81140;SHT31;70624;51.978;5.656;2023-07-09T13:45:46;35.1;42.2
81140;SHT31;70624;51.978;5.656;2023-07-09T13:48:18;34.9;43.1
81140;SHT31;70624;51.978;5.656;2023-07-09T13:50:49;34.7;43.0
81140;SHT31;70624;51.978;5.656;2023-07-09T13:53:22;34.5;42.0
81140;SHT31;70624;51.978;5.656;2023-07-09T13:55:52;34.3;41.3
81140;SHT31;70624;51.978;5.656;2023-07-09T13:58:24;34.2;41.6
81140;SHT31;70624;51.978;5.656;2023-07-09T14:00:57;34.0;41.2
81140;SHT31;70624;51.978;5.656;2023-07-09T14:03:33;33.8;41.3
81140;SHT31;70624;51.978;5.656;2023-07-09T14:06:02;33.6;41.6
81140;SHT31;70624;51.978;5.656;2023-07-09T14:08:31;33.4;42.1
81140;SHT31;70624;51.978;5.656;2023-07-09T14:10:59;33.2;42.5
81140;SHT31;70624;51.978;5.656;2023-07-09T14:13:29;33.0;43.0
81140;SHT31;70624;51.978;5.656;2023-07-09T14:15:59;32.9;44.0
81140;SHT31;70624;51.978;5.656;2023-07-09T14:18:29;32.7;43.1
81140;SHT31;70624;51.978;5.656;2023-07-09T14:20:59;32.6;42.7
81140;SHT31;70624;51.978;5.656;2023-07-09T14:23:29;32.4;43.0
81140;SHT31;70624;51.978;5.656;2023-07-09T14:25:59;32.1;43.6
81140;SHT31;70624;51.978;5.656;2023-07-09T14:28:27;31.8;43.5
81140;SHT31;70624;51.978;5.656;2023-07-09T14:30:56;31.6;43.7
81140;SHT31;70624;51.978;5.656;2023-07-09T14:33:25;31.5;43.7
81140;SHT31;70624;51.978;5.656;2023-07-09T14:35:53;31.3;44.3
81140;SHT31;70624;51.978;5.656;2023-07-09T14:38:24;31.1;45.6
81140;SHT31;70624;51.978;5.656;2023-07-09T14:40:56;30.9;46.2
81140;SHT31;70624;51.978;5.656;2023-07-09T14:43:26;30.7;47.4
81140;SHT31;70624;51.978;5.656;2023-07-09T14:45:55;30.5;48.6
81140;SHT31;70624;51.978;5.656;2023-07-09T14:48:24;30.3;49.3
81140;SHT31;70624;51.978;5.656;2023-07-09T14:50:52;30.0;51.4
81140;SHT31;70624;51.978;5.656;2023-07-09T14:53:26;29.5;53.5
81140;SHT31;70624;51.978;5.656;2023-07-09T14:55:54;29.0;58.7
81140;SHT31;70624;51.978;5.656;2023-07-09T14:58:25;27.9;62.2
81140;SHT31;70624;51.978;5.656;2023-07-09T15:00:54;26.9;66.3
81140;SHT31;70624;51.978;5.656;2023-07-09T15:03:24;26.3;66.9
81140;SHT31;70624;51.978;5.656;2023-07-09T15:05:56;26.0;68.4
81140;SHT31;70624;51.978;5.656;2023-07-09T15:08:26;25.9;68.7
81140;SHT31;70624;51.978;5.656;2023-07-09T15:10:55;25.8;68.8
81140;SHT31;70624;51.978;5.656;2023-07-09T15:13:30;25.8;69.3
81140;SHT31;70624;51.978;5.656;2023-07-09T15:16:00;25.7;68.0
81140;SHT31;70624;51.978;5.656;2023-07-09T15:18:29;25.7;68.5
81140;SHT31;70624;51.978;5.656;2023-07-09T15:21:03;25.7;68.3
81140;SHT31;70624;51.978;5.656;2023-07-09T15:23:39;25.6;68.7
81140;SHT31;70624;51.978;5.656;2023-07-09T15:26:14;25.6;67.9
81140;SHT31;70624;51.978;5.656;2023-07-09T15:28:43;25.6;69.8
81140;SHT31;70624;51.978;5.656;2023-07-09T15:31:15;25.6;71.2
81140;SHT31;70624;51.978;5.656;2023-07-09T15:33:44;25.6;70.3
81140;SHT31;70624;51.978;5.656;2023-07-09T15:36:12;25.7;68.6
81140;SHT31;70624;51.978;5.656;2023-07-09T15:38:41;25.7;69.2
81140;SHT31;70624;51.978;5.656;2023-07-09T15:41:11;25.8;70.3
81140;SHT31;70624;51.978;5.656;2023-07-09T15:43:41;25.8;68.2
81140;SHT31;70624;51.978;5.656;2023-07-09T15:46:18;25.8;69.3
81140;SHT31;70624;51.978;5.656;2023-07-09T15:48:50;25.9;69.2
81140;SHT31;70624;51.978;5.656;2023-07-09T15:51:18;25.9;67.9
81140;SHT31;70624;51.978;5.656;2023-07-09T15:53:47;26.0;70.5
81140;SHT31;70624;51.978;5.656;2023-07-09T15:56:23;26.0;69.3
81140;SHT31;70624;51.978;5.656;2023-07-09T15:58:53;26.1;68.8
81140;SHT31;70624;51.978;5.656;2023-07-09T16:01:23;26.1;66.9
81140;SHT31;70624;51.978;5.656;2023-07-09T16:03:57;26.2;68.2
81140;SHT31;70624;51.978;5.656;2023-07-09T16:06:26;26.2;69.7
81140;SHT31;70624;51.978;5.656;2023-07-09T16:08:54;26.3;68.7
81140;SHT31;70624;51.978;5.656;2023-07-09T16:11:23;26.3;70.1
81140;SHT31;70624;51.978;5.656;2023-07-09T16:13:54;26.4;68.7
81140;SHT31;70624;51.978;5.656;2023-07-09T16:16:23;26.4;68.3
81140;SHT31;70624;51.978;5.656;2023-07-09T16:18:52;26.5;65.9
81140;SHT31;70624;51.978;5.656;2023-07-09T16:21:28;26.5;66.3
81140;SHT31;70624;51.978;5.656;2023-07-09T16:24:00;26.5;66.7
81140;SHT31;70624;51.978;5.656;2023-07-09T16:26:29;26.4;66.6